Time;durP1;ratioP1;P1;durP2;ratioP2;P2;SDS_P1;SDS_P2;PMS_P1;PMS_P2;Temp;Humidity;BMP_temperature;BMP_pressure;BME280_temperature;BME280_humidity;BME280_pressure;Samples;Min_cycle;Max_cycle;Signal;HPM_P1;HPM_P2
2021/03/06 00:00:55;;;;;;;44.45;28.73;;;-1.30;94.00;;;;;;2041073;29;20024;-76
2021/03/06 00:01:56;;;;;;;47.63;28.95;;;-1.40;94.00;;;;;;2048370;29;20035;-75
2021/03/06 00:02:56;;;;;;;46.92;28.42;;;-1.30;94.10;;;;;;2048433;29;20023;-74
2021/03/06 00:03:57;;;;;;;49.58;28.75;;;-1.40;94.10;;;;;;2056203;28;20056;-75
2021/03/06 00:04:58;;;;;;;45.90;27.92;;;-1.40;94.10;;;;;;2048471;29;20021;-77
2021/03/06 00:05:58;;;;;;;46.60;28.80;;;-1.40;94.10;;;;;;2048780;29;20061;-77
2021/03/06 00:06:59;;;;;;;45.20;28.38;;;-1.40;94.20;;;;;;2052866;28;20015;-77
2021/03/06 00:07:59;;;;;;;47.95;28.90;;;-1.30;94.20;;;;;;2054747;29;20028;-76
2021/03/06 00:09:00;;;;;;;47.05;29.10;;;-1.40;94.20;;;;;;2055075;28;20055;-75
2021/03/06 00:10:01;;;;;;;48.25;29.67;;;-1.40;94.10;;;;;;2054447;29;20031;-75
2021/03/06 00:11:01;;;;;;;48.55;29.63;;;-1.40;94.10;;;;;;2096075;28;20040;-78
2021/03/06 00:12:06;;;;;;;44.55;27.88;;;-1.40;94.10;;;;;;2087534;28;20030;-77
2021/03/06 00:13:06;;;;;;;47.38;28.85;;;-1.40;94.20;;;;;;2054385;29;20027;-75
2021/03/06 00:14:07;;;;;;;44.58;27.92;;;-1.40;94.20;;;;;;2051391;28;20023;-75
2021/03/06 00:15:09;;;;;;;44.60;28.00;;;-1.40;94.20;;;;;;2049584;28;20038;-77
2021/03/06 00:16:10;;;;;;;43.72;27.38;;;-1.40;94.20;;;;;;2049112;28;20073;-75
2021/03/06 00:17:11;;;;;;;43.75;27.10;;;-1.50;94.20;;;;;;2048914;28;20019;-74
2021/03/06 00:18:11;;;;;;;46.67;27.00;;;-1.50;94.20;;;;;;2049353;28;20483;-75
2021/03/06 00:19:12;;;;;;;41.22;26.45;;;-1.50;94.20;;;;;;2048566;28;20035;-75
2021/03/06 00:20:13;;;;;;;41.90;26.30;;;-1.50;94.20;;;;;;2040499;28;20455;-74
2021/03/06 00:21:14;;;;;;;44.38;26.08;;;-1.50;94.20;;;;;;2040646;29;20522;-76
2021/03/06 00:22:14;;;;;;;44.70;26.90;;;-1.50;94.20;;;;;;2048284;28;20038;-76
2021/03/06 00:23:15;;;;;;;48.42;27.00;;;-1.50;94.20;;;;;;2040566;29;20032;-76
2021/03/06 00:24:16;;;;;;;43.63;26.20;;;-1.50;94.20;;;;;;2047895;28;20027;-78
2021/03/06 00:25:18;;;;;;;40.53;25.13;;;-1.50;94.20;;;;;;2048720;28;20447;-76
2021/03/06 00:26:18;;;;;;;44.60;25.73;;;-1.50;94.30;;;;;;2056125;28;20030;-76
2021/03/06 00:27:19;;;;;;;43.53;26.05;;;-1.50;94.30;;;;;;2048070;28;20190;-76
2021/03/06 00:28:19;;;;;;;41.78;25.10;;;-1.50;94.30;;;;;;2048308;29;20034;-76
2021/03/06 00:29:20;;;;;;;42.63;25.00;;;-1.50;94.70;;;;;;2048233;29;20027;-77
2021/03/06 00:30:22;;;;;;;37.08;24.05;;;-1.50;94.30;;;;;;2048947;28;20368;-76
2021/03/06 00:31:22;;;;;;;39.83;24.25;;;-1.50;94.20;;;;;;2048746;28;20031;-77
2021/03/06 00:32:23;;;;;;;36.03;22.77;;;-1.60;94.20;;;;;;2048833;28;20579;-76
2021/03/06 00:33:23;;;;;;;38.58;24.10;;;-1.50;94.20;;;;;;2048951;28;20031;-77
2021/03/06 00:34:24;;;;;;;38.95;23.55;;;-1.50;94.20;;;;;;2048847;28;20032;-76
2021/03/06 00:35:24;;;;;;;37.22;23.52;;;-1.50;94.10;;;;;;2048903;28;20034;-74
2021/03/06 00:36:25;;;;;;;37.08;23.02;;;-1.50;94.40;;;;;;2048962;28;20434;-77
2021/03/06 00:37:26;;;;;;;38.90;23.25;;;-1.60;94.00;;;;;;2048835;28;20074;-76
2021/03/06 00:38:26;;;;;;;37.17;22.95;;;-1.50;94.10;;;;;;2048086;29;20039;-78
2021/03/06 00:39:27;;;;;;;35.45;22.90;;;-1.50;94.10;;;;;;2047668;29;20023;-77
2021/03/06 00:40:27;;;;;;;35.17;23.02;;;-1.50;94.10;;;;;;2056304;28;20585;-77
2021/03/06 00:41:28;;;;;;;36.63;22.05;;;-1.60;94.00;;;;;;2056570;28;20070;-76
2021/03/06 00:42:29;;;;;;;35.70;22.38;;;-1.50;94.00;;;;;;2048061;29;20031;-77
2021/03/06 00:43:30;;;;;;;37.17;23.40;;;-1.60;93.90;;;;;;2048163;29;20047;-77
2021/03/06 00:44:30;;;;;;;35.03;22.55;;;-1.60;93.90;;;;;;2048184;29;20096;-78
2021/03/06 00:45:31;;;;;;;36.53;22.08;;;-1.60;93.90;;;;;;2048076;29;20482;-77
2021/03/06 00:46:32;;;;;;;37.63;22.77;;;-1.60;93.90;;;;;;2048715;28;20457;-76
2021/03/06 00:47:34;;;;;;;34.15;22.23;;;-1.60;94.00;;;;;;2048014;29;20031;-77
2021/03/06 00:48:35;;;;;;;35.70;22.90;;;-1.60;94.00;;;;;;2040114;29;20032;-77
2021/03/06 00:49:35;;;;;;;36.67;22.90;;;-1.60;94.00;;;;;;2047517;29;20027;-77
2021/03/06 00:50:37;;;;;;;36.17;22.67;;;-1.60;94.00;;;;;;2047725;29;20038;-77
2021/03/06 00:51:46;;;;;;;34.05;21.73;;;-1.60;94.10;;;;;;2041065;28;20066;-77
2021/03/06 00:52:52;;;;;;;34.72;21.92;;;-1.70;94.20;;;;;;2040770;28;20024;-77
2021/03/06 00:53:55;;;;;;;37.70;22.48;;;-1.70;94.10;;;;;;2048166;29;20031;-77
2021/03/06 00:54:56;;;;;;;35.50;22.40;;;-1.70;94.20;;;;;;2047848;28;20059;-77
2021/03/06 00:55:57;;;;;;;34.90;22.52;;;-1.70;94.30;;;;;;2047887;29;20030;-77
2021/03/06 00:56:58;;;;;;;35.83;22.58;;;-1.70;94.40;;;;;;2047959;28;20039;-77
2021/03/06 00:57:59;;;;;;;37.33;22.98;;;-1.70;94.50;;;;;;2040060;28;20395;-76
2021/03/06 00:59:00;;;;;;;38.92;22.45;;;-1.70;94.50;;;;;;2039497;28;20034;-77
2021/03/06 01:00:02;;;;;;;38.92;23.20;;;-1.70;94.50;;;;;;2039961;29;20034;-78
2021/03/06 01:01:08;;;;;;;38.00;22.23;;;-1.70;94.60;;;;;;2048124;28;20034;-77
2021/03/06 01:02:09;;;;;;;34.10;21.70;;;-1.70;94.60;;;;;;2055921;28;20035;-77
2021/03/06 01:03:12;;;;;;;33.88;21.65;;;-1.70;94.60;;;;;;2040089;28;20050;-76
2021/03/06 01:04:13;;;;;;;35.30;22.30;;;-1.70;94.60;;;;;;2032454;29;20031;-76
2021/03/06 01:05:14;;;;;;;37.45;22.38;;;-1.70;94.60;;;;;;2048044;29;20031;-78
2021/03/06 01:06:14;;;;;;;38.20;21.95;;;-1.70;94.70;;;;;;2048611;28;20023;-76
2021/03/06 01:07:15;;;;;;;38.13;22.60;;;-1.70;94.60;;;;;;2047896;28;20610;-78
2021/03/06 01:08:16;;;;;;;33.33;21.48;;;-1.70;94.70;;;;;;2047883;29;20442;-76
2021/03/06 01:09:16;;;;;;;37.03;22.55;;;-1.80;94.70;;;;;;2047006;28;20024;-77
2021/03/06 01:10:21;;;;;;;38.53;23.48;;;-1.70;94.70;;;;;;2039882;28;20039;-75
2021/03/06 01:11:21;;;;;;;38.50;24.00;;;-1.70;94.70;;;;;;2040395;29;20504;-77
2021/03/06 01:12:22;;;;;;;35.63;22.80;;;-1.80;94.70;;;;;;2048007;29;20039;-76
2021/03/06 01:13:24;;;;;;;37.53;23.10;;;-1.80;94.70;;;;;;2048581;28;20391;-77
2021/03/06 01:14:25;;;;;;;38.53;24.02;;;-1.80;94.70;;;;;;2047891;29;20019;-76
2021/03/06 01:15:26;;;;;;;38.42;23.70;;;-1.80;94.70;;;;;;2047713;29;20549;-77
2021/03/06 01:16:26;;;;;;;38.22;23.52;;;-1.80;94.70;;;;;;2048446;28;20058;-76
2021/03/06 01:17:27;;;;;;;37.47;23.85;;;-1.80;94.80;;;;;;2048465;28;20038;-76
2021/03/06 01:18:28;;;;;;;39.78;24.20;;;-1.80;94.80;;;;;;2048403;28;20038;-77
2021/03/06 01:19:28;;;;;;;38.97;23.42;;;-1.80;94.80;;;;;;2047582;28;20059;-75
2021/03/06 01:20:29;;;;;;;37.55;23.65;;;-1.80;94.90;;;;;;2047608;28;20114;-76
2021/03/06 01:21:31;;;;;;;38.03;24.30;;;-1.80;94.90;;;;;;2047806;29;20035;-77
2021/03/06 01:22:32;;;;;;;40.88;24.00;;;-1.80;94.80;;;;;;2048389;28;20035;-76
2021/03/06 01:23:32;;;;;;;40.33;24.98;;;-1.80;94.90;;;;;;2048389;29;20122;-77
2021/03/06 01:24:34;;;;;;;38.78;23.38;;;-1.80;94.90;;;;;;2048314;28;20024;-76
2021/03/06 01:25:35;;;;;;;37.05;22.95;;;-1.80;95.00;;;;;;2048378;28;20031;-76
2021/03/06 01:26:36;;;;;;;40.03;23.75;;;-1.90;95.00;;;;;;2047609;28;20579;-76
2021/03/06 01:27:37;;;;;;;40.13;23.65;;;-1.80;95.10;;;;;;2039570;28;20036;-76
2021/03/06 01:28:37;;;;;;;37.95;23.48;;;-1.80;95.10;;;;;;2046757;29;20049;-76
2021/03/06 01:29:38;;;;;;;38.75;23.13;;;-1.80;95.20;;;;;;2048074;28;20027;-77
2021/03/06 01:30:38;;;;;;;37.88;23.48;;;-1.80;95.20;;;;;;2055803;28;20508;-77
2021/03/06 01:31:39;;;;;;;38.33;23.65;;;-1.80;95.20;;;;;;2055808;28;20037;-76
2021/03/06 01:32:40;;;;;;;38.15;23.17;;;-1.90;95.20;;;;;;2048361;28;20078;-76
2021/03/06 01:33:40;;;;;;;38.65;23.58;;;-1.80;95.20;;;;;;2048498;28;20034;-77
2021/03/06 01:34:41;;;;;;;36.85;23.08;;;-1.90;95.20;;;;;;2048253;28;20034;-77
2021/03/06 01:35:42;;;;;;;38.13;24.23;;;-1.90;95.20;;;;;;2047840;28;20089;-76
2021/03/06 01:36:42;;;;;;;40.28;23.70;;;-1.90;95.20;;;;;;2039810;29;20030;-76
2021/03/06 01:37:43;;;;;;;38.38;23.75;;;-1.90;95.20;;;;;;2047898;29;20429;-76
2021/03/06 01:38:44;;;;;;;40.05;23.45;;;-1.90;95.30;;;;;;2047916;28;20033;-77
2021/03/06 01:39:44;;;;;;;39.00;23.35;;;-1.90;95.70;;;;;;2047510;28;20042;-77
2021/03/06 01:40:45;;;;;;;40.50;23.38;;;-1.90;95.40;;;;;;2047510;29;20486;-76
2021/03/06 01:41:46;;;;;;;41.13;23.67;;;-1.90;95.40;;;;;;2047760;29;20080;-77
2021/03/06 01:42:46;;;;;;;37.45;23.17;;;-1.90;95.40;;;;;;2048331;28;20034;-76
2021/03/06 01:43:47;;;;;;;38.60;24.02;;;-1.90;95.40;;;;;;2048364;28;20027;-77
2021/03/06 01:44:48;;;;;;;38.22;23.10;;;-1.90;95.40;;;;;;2048188;28;20031;-76
2021/03/06 01:45:48;;;;;;;38.33;23.30;;;-1.90;95.50;;;;;;2055635;28;20038;-78
2021/03/06 01:46:50;;;;;;;38.53;23.52;;;-1.90;95.50;;;;;;2055592;28;20031;-76
2021/03/06 01:47:51;;;;;;;39.53;23.15;;;-1.90;95.60;;;;;;2048188;28;20024;-77
2021/03/06 01:48:52;;;;;;;37.92;23.30;;;-1.90;95.60;;;;;;2047047;29;20031;-77
2021/03/06 01:49:52;;;;;;;36.90;23.27;;;-2.00;95.60;;;;;;2039527;29;20058;-77
2021/03/06 01:50:53;;;;;;;39.83;23.80;;;-1.90;95.60;;;;;;2039626;29;20530;-77
2021/03/06 01:51:55;;;;;;;36.88;22.20;;;-1.90;95.60;;;;;;2047869;29;20161;-77
2021/03/06 01:52:57;;;;;;;37.22;22.60;;;-2.00;95.50;;;;;;2055615;28;20441;-77
2021/03/06 01:53:58;;;;;;;35.67;22.20;;;-1.90;95.50;;;;;;2047664;28;20081;-77
2021/03/06 01:55:00;;;;;;;34.42;22.25;;;-2.00;95.50;;;;;;2047710;28;20034;-77
2021/03/06 01:56:01;;;;;;;35.95;22.60;;;-2.00;95.50;;;;;;2047440;29;20030;-76
2021/03/06 01:57:02;;;;;;;39.20;23.75;;;-2.00;95.50;;;;;;2047553;29;20019;-77
2021/03/06 01:58:04;;;;;;;37.88;23.05;;;-2.00;95.60;;;;;;2048331;28;20518;-78
2021/03/06 01:59:05;;;;;;;38.17;23.35;;;-2.00;95.60;;;;;;2047505;28;20027;-79
2021/03/06 02:00:07;;;;;;;37.03;23.13;;;-2.00;95.60;;;;;;2047662;29;20410;-76
2021/03/06 02:01:12;;;;;;;36.63;22.15;;;-2.00;95.60;;;;;;2047521;29;20039;-76
2021/03/06 02:02:13;;;;;;;34.88;22.52;;;-2.00;95.60;;;;;;2048259;28;20459;-77
2021/03/06 02:03:14;;;;;;;37.40;22.63;;;-2.00;95.60;;;;;;2048042;28;20040;-76
2021/03/06 02:04:16;;;;;;;36.53;22.02;;;-2.10;95.50;;;;;;2048188;28;20038;-77
2021/03/06 02:05:18;;;;;;;39.00;22.67;;;-2.00;95.50;;;;;;2048277;28;20061;-76
2021/03/06 02:06:18;;;;;;;39.75;23.25;;;-2.00;95.50;;;;;;2048091;28;20039;-76
2021/03/06 02:07:19;;;;;;;38.53;22.92;;;-2.10;95.50;;;;;;2048223;28;20106;-78
2021/03/06 02:08:20;;;;;;;38.30;22.02;;;-2.10;95.60;;;;;;2047453;29;20047;-77
2021/03/06 02:09:22;;;;;;;39.03;22.77;;;-2.10;95.60;;;;;;2046637;29;20064;-76
2021/03/06 02:10:28;;;;;;;38.85;22.33;;;-2.10;95.60;;;;;;2048048;28;20027;-76
2021/03/06 02:11:41;;;;;;;36.28;21.77;;;-2.10;95.60;;;;;;2055366;28;20079;-77
2021/03/06 02:12:48;;;;;;;33.60;20.52;;;-2.10;95.60;;;;;;2047345;29;20026;-77
2021/03/06 02:14:10;;;;;;;32.90;20.75;;;-2.10;95.60;;;;;;2040033;29;20569;-76
2021/03/06 02:15:58;;;;;;;34.53;21.05;;;-2.10;95.50;;;;;;2047541;29;20027;-77
2021/03/06 02:17:31;;;;;;;31.30;19.52;;;-2.10;95.60;;;;;;2072129;28;20070;-76
2021/03/06 02:19:02;;;;;;;33.60;20.17;;;-2.10;95.70;;;;;;2054731;28;20458;-78
2021/03/06 02:20:17;;;;;;;38.42;20.20;;;-2.10;95.70;;;;;;2048173;28;20031;-76
2021/03/06 02:21:44;;;;;;;34.35;20.00;;;-2.20;95.70;;;;;;2048159;28;20031;-77
2021/03/06 02:23:11;;;;;;;39.38;21.13;;;-2.20;95.70;;;;;;2048883;28;20031;-76
2021/03/06 02:24:28;;;;;;;42.63;21.27;;;-2.20;95.70;;;;;;2047864;28;20039;-76
2021/03/06 02:26:02;;;;;;;45.90;21.42;;;-2.20;95.70;;;;;;2047511;29;20027;-76
2021/03/06 02:27:31;;;;;;;38.42;20.10;;;-2.20;95.80;;;;;;2047642;29;20118;-77
2021/03/06 02:29:08;;;;;;;31.73;19.30;;;-2.20;95.80;;;;;;2055241;28;20061;-77
2021/03/06 02:30:11;;;;;;;35.13;19.63;;;-2.20;95.90;;;;;;2050812;28;20047;-75
2021/03/06 02:31:14;;;;;;;35.22;19.52;;;-2.20;96.00;;;;;;2055099;28;20534;-77
2021/03/06 02:32:27;;;;;;;34.50;19.75;;;-2.20;96.00;;;;;;2055021;28;20031;-76
2021/03/06 02:33:31;;;;;;;33.40;19.17;;;-2.20;96.00;;;;;;2055390;28;20035;-77
2021/03/06 02:34:33;;;;;;;37.03;20.15;;;-2.20;96.00;;;;;;2054968;28;20052;-76
2021/03/06 02:35:35;;;;;;;34.65;19.67;;;-2.20;96.00;;;;;;2047850;28;20031;-76
2021/03/06 02:36:46;;;;;;;35.15;19.55;;;-2.20;96.00;;;;;;2055217;28;20126;-77
2021/03/06 02:37:49;;;;;;;34.13;19.92;;;-2.20;96.00;;;;;;2047335;29;20059;-77
2021/03/06 02:38:55;;;;;;;36.80;20.08;;;-2.20;96.10;;;;;;2046768;28;20142;-77
2021/03/06 02:39:59;;;;;;;41.67;21.48;;;-2.20;96.10;;;;;;2054786;28;20084;-76
2021/03/06 02:41:01;;;;;;;42.15;22.00;;;-2.20;96.10;;;;;;2046793;28;20027;-77
2021/03/06 02:42:05;;;;;;;41.40;22.52;;;-2.20;96.20;;;;;;2032182;29;20037;-76
2021/03/06 02:43:09;;;;;;;38.72;22.00;;;-2.20;96.20;;;;;;2047697;28;20110;-77
2021/03/06 02:44:12;;;;;;;41.03;21.88;;;-2.20;96.30;;;;;;2048293;28;20034;-77
2021/03/06 02:45:15;;;;;;;41.28;22.60;;;-2.30;96.30;;;;;;2048287;28;20031;-77
2021/03/06 02:46:16;;;;;;;41.97;22.50;;;-2.20;96.30;;;;;;2055632;28;20060;-77
2021/03/06 02:47:17;;;;;;;38.55;22.08;;;-2.30;96.40;;;;;;2055464;28;20104;-77
2021/03/06 02:48:18;;;;;;;43.63;22.77;;;-2.20;96.80;;;;;;2047855;28;20031;-75
2021/03/06 02:49:19;;;;;;;46.38;23.90;;;-2.20;96.40;;;;;;2047041;28;20026;-76
2021/03/06 02:50:19;;;;;;;49.25;24.33;;;-2.30;96.40;;;;;;2055552;28;20043;-76
2021/03/06 02:51:21;;;;;;;45.67;23.92;;;-2.20;96.40;;;;;;2055214;28;20039;-76
2021/03/06 02:52:22;;;;;;;41.17;23.35;;;-2.30;96.40;;;;;;2055228;28;20547;-75
2021/03/06 02:53:23;;;;;;;38.50;21.77;;;-2.30;96.40;;;;;;2055239;28;20027;-76
2021/03/06 02:54:23;;;;;;;39.53;21.88;;;-2.30;96.40;;;;;;2047270;28;20035;-75
2021/03/06 02:55:24;;;;;;;34.95;20.13;;;-2.30;96.40;;;;;;2047180;28;20027;-75
2021/03/06 02:56:25;;;;;;;32.25;20.25;;;-2.30;96.40;;;;;;2047331;29;20066;-75
2021/03/06 02:57:42;;;;;;;33.40;20.25;;;-2.30;96.50;;;;;;2047716;29;20092;-75
2021/03/06 02:58:55;;;;;;;35.00;20.38;;;-2.30;96.60;;;;;;2046690;29;20074;-75
2021/03/06 03:00:04;;;;;;;33.28;19.98;;;-2.30;96.60;;;;;;2047069;29;20533;-76
2021/03/06 03:01:37;;;;;;;32.63;19.60;;;-2.30;96.60;;;;;;2047546;29;20399;-75
2021/03/06 03:03:01;;;;;;;39.78;21.95;;;-2.30;96.60;;;;;;2047822;28;20513;-76
2021/03/06 03:04:26;;;;;;;45.95;23.50;;;-2.30;96.60;;;;;;2047776;28;20551;-75
2021/03/06 03:05:36;;;;;;;52.08;24.38;;;-2.30;96.60;;;;;;2047170;28;20108;-76
2021/03/06 03:06:38;;;;;;;45.88;24.35;;;-2.30;96.70;;;;;;2040523;28;20039;-76
2021/03/06 03:07:53;;;;;;;39.53;22.63;;;-2.30;96.70;;;;;;2047145;29;20487;-76
2021/03/06 03:09:17;;;;;;;42.08;22.38;;;-2.40;96.70;;;;;;2054483;28;20039;-76
2021/03/06 03:10:20;;;;;;;45.10;22.73;;;-2.30;96.70;;;;;;2052418;28;20050;-77
2021/03/06 03:11:28;;;;;;;45.05;22.58;;;-2.40;96.70;;;;;;2047856;28;20036;-75
2021/03/06 03:12:39;;;;;;;44.65;21.83;;;-2.30;96.80;;;;;;2047836;28;20485;-76
2021/03/06 03:14:08;;;;;;;45.50;22.10;;;-2.30;96.80;;;;;;2047592;28;20020;-76
2021/03/06 03:15:20;;;;;;;45.33;23.08;;;-2.30;96.80;;;;;;2049210;28;20054;-76
2021/03/06 03:16:33;;;;;;;44.25;22.30;;;-2.40;96.80;;;;;;2047620;28;20496;-76
2021/03/06 03:17:40;;;;;;;47.05;22.25;;;-2.40;96.80;;;;;;2047806;28;20035;-77
2021/03/06 03:18:48;;;;;;;43.08;22.73;;;-2.40;96.80;;;;;;2047187;28;20129;-76
2021/03/06 03:20:00;;;;;;;43.63;22.38;;;-2.40;96.80;;;;;;2047640;28;20445;-76
2021/03/06 03:21:04;;;;;;;41.08;21.42;;;-2.40;96.80;;;;;;2047285;28;20041;-74
2021/03/06 03:22:08;;;;;;;39.13;20.90;;;-2.40;96.90;;;;;;2047447;29;20114;-77
2021/03/06 03:23:15;;;;;;;37.85;20.58;;;-2.40;96.90;;;;;;2047249;28;20490;-77
2021/03/06 03:24:19;;;;;;;37.08;21.35;;;-2.40;96.90;;;;;;2047577;29;20039;-76
2021/03/06 03:25:21;;;;;;;36.97;20.63;;;-2.40;96.90;;;;;;2048288;28;20081;-76
2021/03/06 03:26:22;;;;;;;37.38;20.73;;;-2.40;96.90;;;;;;2048068;29;20073;-76
2021/03/06 03:27:25;;;;;;;43.45;22.23;;;-2.40;96.90;;;;;;2047970;29;20081;-76
2021/03/06 03:28:28;;;;;;;45.78;22.70;;;-2.50;96.90;;;;;;2048652;28;20039;-76
2021/03/06 03:29:30;;;;;;;41.60;22.00;;;-2.40;97.00;;;;;;2048010;28;20028;-76
2021/03/06 03:30:32;;;;;;;46.30;23.20;;;-2.40;97.00;;;;;;2047636;29;20098;-75
2021/03/06 03:31:35;;;;;;;44.90;23.30;;;-2.40;97.00;;;;;;2047362;29;20638;-77
2021/03/06 03:32:36;;;;;;;43.70;22.92;;;-2.40;97.00;;;;;;2048015;28;20069;-76
2021/03/06 03:33:39;;;;;;;42.00;23.17;;;-2.40;97.00;;;;;;2047638;28;20105;-76
2021/03/06 03:34:42;;;;;;;40.42;22.05;;;-2.40;97.30;;;;;;2047693;28;20095;-75
2021/03/06 03:35:45;;;;;;;39.47;22.17;;;-2.40;97.10;;;;;;2047697;28;20031;-76
2021/03/06 03:36:47;;;;;;;39.85;21.45;;;-2.40;97.00;;;;;;2047791;28;20403;-75
2021/03/06 03:37:50;;;;;;;37.30;21.02;;;-2.50;97.00;;;;;;2047671;28;20051;-75
2021/03/06 03:38:51;;;;;;;38.28;21.38;;;-2.50;97.00;;;;;;2046609;28;20043;-76
2021/03/06 03:39:53;;;;;;;35.60;20.98;;;-2.40;97.10;;;;;;2047003;29;20030;-76
2021/03/06 03:40:54;;;;;;;36.65;20.55;;;-2.40;97.10;;;;;;2047157;28;20088;-76
2021/03/06 03:41:57;;;;;;;32.17;20.35;;;-2.40;97.00;;;;;;2039761;29;20031;-76
2021/03/06 03:42:58;;;;;;;34.22;20.05;;;-2.50;97.00;;;;;;2047387;29;20031;-75
2021/03/06 03:44:02;;;;;;;30.83;20.00;;;-2.50;97.00;;;;;;2047476;28;20027;-77
2021/03/06 03:45:09;;;;;;;29.48;19.38;;;-2.50;97.00;;;;;;2048959;28;20067;-77
2021/03/06 03:46:10;;;;;;;31.95;20.27;;;-2.50;97.10;;;;;;2048900;29;20039;-76
2021/03/06 03:47:11;;;;;;;33.13;19.88;;;-2.50;97.10;;;;;;2049187;28;20037;-77
2021/03/06 03:48:12;;;;;;;31.50;19.52;;;-2.50;97.10;;;;;;2049626;28;20035;-76
2021/03/06 03:49:24;;;;;;;33.28;19.60;;;-2.50;97.10;;;;;;2049064;29;20024;-77
2021/03/06 03:50:26;;;;;;;30.48;19.00;;;-2.50;97.10;;;;;;2050972;28;20080;-75
2021/03/06 03:51:27;;;;;;;30.92;19.73;;;-2.50;97.10;;;;;;2050407;28;20097;-75
2021/03/06 03:52:28;;;;;;;33.53;19.85;;;-2.50;97.10;;;;;;2050810;28;20043;-76
2021/03/06 03:53:30;;;;;;;31.77;19.42;;;-2.50;97.20;;;;;;2050816;29;20034;-76
2021/03/06 03:54:32;;;;;;;29.55;19.35;;;-2.50;97.10;;;;;;2050717;29;20042;-77
2021/03/06 03:55:33;;;;;;;30.83;19.50;;;-2.50;97.10;;;;;;2050905;28;20092;-76
2021/03/06 03:56:35;;;;;;;29.25;19.50;;;-2.50;97.00;;;;;;2049607;28;20031;-77
2021/03/06 03:57:36;;;;;;;28.85;19.20;;;-2.50;97.10;;;;;;2049736;29;20042;-75
2021/03/06 03:58:37;;;;;;;30.20;19.73;;;-2.50;97.10;;;;;;2049511;29;20166;-76
2021/03/06 03:59:37;;;;;;;27.33;18.88;;;-2.60;97.00;;;;;;2049286;28;20035;-75
2021/03/06 04:00:39;;;;;;;30.13;19.83;;;-2.50;97.10;;;;;;2050118;28;20057;-76
2021/03/06 04:01:44;;;;;;;30.02;19.33;;;-2.50;97.10;;;;;;2050326;28;20027;-75
2021/03/06 04:02:46;;;;;;;30.45;19.40;;;-2.60;97.10;;;;;;2049290;28;20055;-77
2021/03/06 04:03:46;;;;;;;28.13;18.80;;;-2.60;97.10;;;;;;2048914;28;20028;-75
2021/03/06 04:04:47;;;;;;;28.60;18.83;;;-2.60;97.10;;;;;;2049405;28;20379;-76
2021/03/06 04:05:48;;;;;;;30.38;19.10;;;-2.60;97.10;;;;;;2049538;28;20074;-75
2021/03/06 04:06:48;;;;;;;31.67;18.92;;;-2.60;97.10;;;;;;2049556;28;20063;-76
2021/03/06 04:07:50;;;;;;;29.90;18.73;;;-2.60;97.10;;;;;;2056104;28;20034;-75
2021/03/06 04:08:51;;;;;;;30.65;19.20;;;-2.60;97.20;;;;;;2047501;28;20146;-77
2021/03/06 04:09:51;;;;;;;30.48;19.45;;;-2.60;97.20;;;;;;2048069;29;20035;-75
2021/03/06 04:10:52;;;;;;;36.28;19.42;;;-2.60;97.20;;;;;;2048452;28;20034;-76
2021/03/06 04:11:53;;;;;;;28.60;18.60;;;-2.60;97.20;;;;;;2048022;28;20510;-75
2021/03/06 04:12:55;;;;;;;28.10;18.73;;;-2.60;97.20;;;;;;2039953;29;20081;-75
2021/03/06 04:13:56;;;;;;;28.67;18.23;;;-2.60;97.20;;;;;;2048030;29;20875;-75
2021/03/06 04:14:56;;;;;;;31.05;19.80;;;-2.60;97.20;;;;;;2048707;28;20031;-76
2021/03/06 04:15:57;;;;;;;31.75;18.65;;;-2.60;97.20;;;;;;2048732;28;20118;-76
2021/03/06 04:16:58;;;;;;;28.65;18.52;;;-2.60;97.20;;;;;;2048734;28;20209;-76
2021/03/06 04:17:58;;;;;;;29.58;18.42;;;-2.60;97.20;;;;;;2048939;28;20395;-76
2021/03/06 04:18:59;;;;;;;29.67;18.88;;;-2.60;97.20;;;;;;2047480;28;20019;-75
2021/03/06 04:19:59;;;;;;;28.13;18.30;;;-2.60;97.20;;;;;;2047810;29;20441;-77
2021/03/06 04:21:00;;;;;;;33.05;18.63;;;-2.60;97.20;;;;;;2048467;28;20391;-75
2021/03/06 04:22:00;;;;;;;28.15;18.77;;;-2.60;97.30;;;;;;2048121;28;20098;-75
2021/03/06 04:23:01;;;;;;;31.23;18.80;;;-2.60;97.30;;;;;;2047872;29;20038;-76
2021/03/06 04:24:02;;;;;;;29.95;18.73;;;-2.60;97.30;;;;;;2047998;28;20079;-76
2021/03/06 04:25:05;;;;;;;30.95;18.80;;;-2.60;97.30;;;;;;2055896;28;20038;-76
2021/03/06 04:26:05;;;;;;;28.35;17.70;;;-2.60;97.20;;;;;;2048692;28;20039;-74
2021/03/06 04:27:06;;;;;;;29.90;18.40;;;-2.60;97.20;;;;;;2056194;28;20043;-75
2021/03/06 04:28:07;;;;;;;29.17;18.42;;;-2.60;97.20;;;;;;2055879;28;20046;-74
2021/03/06 04:29:07;;;;;;;28.90;18.02;;;-2.60;97.20;;;;;;2048106;28;20102;-75
2021/03/06 04:30:10;;;;;;;27.58;17.83;;;-2.60;97.20;;;;;;2048882;28;20035;-75
2021/03/06 04:31:11;;;;;;;26.42;17.10;;;-2.60;97.20;;;;;;2048513;28;20054;-75
2021/03/06 04:32:11;;;;;;;29.02;18.13;;;-2.60;97.20;;;;;;2048685;28;20085;-75
2021/03/06 04:33:12;;;;;;;27.88;18.25;;;-2.60;97.20;;;;;;2048645;28;20055;-75
2021/03/06 04:34:12;;;;;;;26.60;17.95;;;-2.60;97.20;;;;;;2048722;28;20046;-75
2021/03/06 04:35:13;;;;;;;29.67;18.75;;;-2.60;97.10;;;;;;2048663;28;20036;-75
2021/03/06 04:36:14;;;;;;;27.30;18.40;;;-2.60;97.10;;;;;;2048056;28;20027;-76
2021/03/06 04:37:15;;;;;;;28.83;18.10;;;-2.60;97.10;;;;;;2039982;29;20032;-75
2021/03/06 04:38:16;;;;;;;29.77;18.10;;;-2.60;97.10;;;;;;2051470;29;20276;-76
2021/03/06 04:39:16;;;;;;;29.20;18.40;;;-2.70;97.10;;;;;;2056513;28;20057;-76
2021/03/06 04:40:17;;;;;;;26.65;17.67;;;-2.70;97.10;;;;;;2065075;28;20058;-74
2021/03/06 04:41:18;;;;;;;27.30;17.67;;;-2.70;97.10;;;;;;2064745;28;20031;-75
2021/03/06 04:42:18;;;;;;;30.75;19.05;;;-2.70;97.10;;;;;;2057271;28;20035;-74
2021/03/06 04:43:19;;;;;;;28.77;18.50;;;-2.70;97.10;;;;;;2064976;28;20026;-74
2021/03/06 04:44:19;;;;;;;25.98;17.80;;;-2.70;97.10;;;;;;2065115;28;20042;-75
2021/03/06 04:45:20;;;;;;;28.55;18.10;;;-2.70;97.10;;;;;;2055189;28;20040;-74
2021/03/06 04:46:21;;;;;;;31.65;18.90;;;-2.70;97.10;;;;;;2049166;28;20042;-75
2021/03/06 04:47:22;;;;;;;29.23;18.33;;;-2.70;97.10;;;;;;2049058;28;20112;-74
2021/03/06 04:48:22;;;;;;;29.23;19.20;;;-2.70;97.00;;;;;;2049018;28;20517;-76
2021/03/06 04:49:23;;;;;;;30.02;18.20;;;-2.70;97.00;;;;;;2055460;28;20027;-75
2021/03/06 04:50:23;;;;;;;27.88;18.08;;;-2.70;97.00;;;;;;2056137;28;20031;-75
2021/03/06 04:51:24;;;;;;;29.27;17.65;;;-2.70;97.10;;;;;;2048472;28;20035;-75
2021/03/06 04:52:25;;;;;;;27.98;18.27;;;-2.70;97.10;;;;;;2048641;28;20035;-75
2021/03/06 04:53:25;;;;;;;26.75;17.67;;;-2.70;97.10;;;;;;2048772;28;20441;-75
2021/03/06 04:54:27;;;;;;;29.63;18.42;;;-2.70;97.10;;;;;;2056027;28;20041;-74
2021/03/06 04:55:27;;;;;;;29.00;18.90;;;-2.70;97.20;;;;;;2056009;28;20045;-75
2021/03/06 04:56:28;;;;;;;27.83;17.40;;;-2.70;97.50;;;;;;2048555;28;20077;-74
2021/03/06 04:57:29;;;;;;;27.65;17.60;;;-2.70;97.20;;;;;;2047856;28;20138;-76
2021/03/06 04:58:29;;;;;;;27.65;17.77;;;-2.70;97.20;;;;;;2047754;28;20061;-75
2021/03/06 04:59:30;;;;;;;26.38;17.58;;;-2.70;97.20;;;;;;2047692;28;20112;-74
2021/03/06 05:00:31;;;;;;;28.73;18.70;;;-2.70;97.50;;;;;;2047849;28;20037;-74
2021/03/06 05:01:32;;;;;;;27.40;17.65;;;-2.70;97.20;;;;;;2047815;28;20473;-74
2021/03/06 05:02:34;;;;;;;26.60;17.55;;;-2.70;97.30;;;;;;2056026;28;20056;-75
2021/03/06 05:03:34;;;;;;;26.25;17.10;;;-2.70;97.30;;;;;;2055698;28;20023;-75
2021/03/06 05:04:35;;;;;;;28.83;17.98;;;-2.70;97.30;;;;;;2047894;28;20035;-76
2021/03/06 05:05:35;;;;;;;26.45;16.48;;;-2.70;97.20;;;;;;2039887;29;20062;-75
2021/03/06 05:06:36;;;;;;;27.00;16.75;;;-2.70;97.20;;;;;;2032061;28;20053;-76
2021/03/06 05:07:40;;;;;;;28.58;16.58;;;-2.70;97.30;;;;;;2040053;29;20074;-74
2021/03/06 05:08:40;;;;;;;26.27;16.80;;;-2.70;97.20;;;;;;2047957;28;20478;-73
2021/03/06 05:09:41;;;;;;;25.52;16.38;;;-2.80;97.10;;;;;;2048106;28;20027;-73
2021/03/06 05:10:41;;;;;;;24.95;16.25;;;-2.80;97.10;;;;;;2047667;28;20031;-74
2021/03/06 05:11:42;;;;;;;25.35;16.60;;;-2.80;97.20;;;;;;2047870;29;20490;-73
2021/03/06 05:12:43;;;;;;;26.77;16.70;;;-2.80;97.20;;;;;;2048360;28;20059;-73
2021/03/06 05:13:43;;;;;;;27.13;16.90;;;-2.80;97.20;;;;;;2048480;28;20105;-74
2021/03/06 05:14:44;;;;;;;27.95;17.35;;;-2.80;97.30;;;;;;2048352;28;20023;-75
2021/03/06 05:15:44;;;;;;;27.27;16.13;;;-2.80;97.30;;;;;;2048570;28;20034;-77
2021/03/06 05:16:45;;;;;;;24.35;16.10;;;-2.80;97.20;;;;;;2049399;28;20099;-77
2021/03/06 05:17:46;;;;;;;26.98;16.55;;;-2.80;97.30;;;;;;2056928;28;20092;-76
2021/03/06 05:18:46;;;;;;;26.50;15.88;;;-2.80;97.30;;;;;;2055847;28;20031;-77
2021/03/06 05:19:47;;;;;;;24.48;16.30;;;-2.80;97.30;;;;;;2047611;28;20023;-76
2021/03/06 05:20:48;;;;;;;25.95;17.00;;;-2.80;97.30;;;;;;2047675;29;20093;-76
2021/03/06 05:21:48;;;;;;;25.80;16.90;;;-2.80;97.30;;;;;;2048159;28;20045;-75